createdAt,value
2022-11-22T00:02:24.273Z,11.32
2022-11-22T00:04:54.511Z,15.20
2022-11-22T00:07:23.382Z,17.92
2022-11-22T00:09:58.009Z,21.55
2022-11-22T00:12:27.141Z,15.68
2022-11-22T00:14:57.149Z,23.90
2022-11-22T00:17:28.181Z,19.50
2022-11-22T00:19:58.398Z,15.27
2022-11-22T00:22:27.216Z,11.00
2022-11-22T00:24:55.951Z,19.42
2022-11-22T00:27:24.728Z,19.13
2022-11-22T00:29:54.033Z,26.08
2022-11-22T00:32:22.998Z,17.10
2022-11-22T00:34:51.780Z,17.95
2022-11-22T00:37:21.916Z,17.75
2022-11-22T00:39:50.642Z,12.10
2022-11-22T00:42:19.486Z,21.45
2022-11-22T00:44:48.310Z,22.77
2022-11-22T00:47:17.034Z,20.95
2022-11-22T00:49:45.861Z,18.05
2022-11-22T00:52:15.938Z,25.38
2022-11-22T00:54:53.053Z,21.33
2022-11-22T00:57:23.657Z,19.08
2022-11-22T00:59:52.531Z,23.13
2022-11-22T01:02:21.285Z,23.35
2022-11-22T01:04:50.098Z,21.35
2022-11-22T01:07:19.963Z,21.95
2022-11-22T01:09:51.825Z,17.10
2022-11-22T01:12:22.026Z,20.80
2022-11-22T01:14:53.612Z,33.13
2022-11-22T01:17:26.801Z,18.88
2022-11-22T01:19:57.278Z,22.02
2022-11-22T01:22:27.677Z,20.73
2022-11-22T01:24:59.362Z,14.25
2022-11-22T01:27:46.847Z,25.30
2022-11-22T01:30:18.082Z,16.75
2022-11-22T01:32:46.800Z,18.90
2022-11-22T01:35:15.906Z,21.17
2022-11-22T01:37:44.744Z,22.90
2022-11-22T01:40:15.629Z,18.77
2022-11-22T01:42:49.544Z,29.85
2022-11-22T01:45:45.279Z,20.60
2022-11-22T01:48:50.080Z,20.92
2022-11-22T01:51:27.147Z,25.48
2022-11-22T01:54:01.851Z,17.15
2022-11-22T01:56:33.750Z,20.48
2022-11-22T01:59:11.471Z,16.08
2022-11-22T02:01:40.279Z,20.00
2022-11-22T02:04:15.450Z,22.90
2022-11-22T02:06:56.030Z,17.65
2022-11-22T02:09:25.166Z,22.77
2022-11-22T02:12:01.493Z,21.27
2022-11-22T02:14:32.819Z,20.02
2022-11-22T02:17:02.093Z,14.82
2022-11-22T02:19:43.338Z,25.20
2022-11-22T02:22:31.193Z,24.00
2022-11-22T02:25:13.721Z,18.08
2022-11-22T02:27:44.522Z,23.50
2022-11-22T02:30:13.713Z,30.52
2022-11-22T02:32:42.672Z,24.35
2022-11-22T02:35:21.032Z,21.30
2022-11-22T02:37:56.111Z,18.73
2022-11-22T02:40:27.823Z,31.98
2022-11-22T02:43:04.691Z,20.95
2022-11-22T02:45:33.609Z,18.58
2022-11-22T02:48:08.902Z,20.63
2022-11-22T02:50:38.214Z,27.02
2022-11-22T02:53:08.659Z,21.52
2022-11-22T02:55:38.037Z,22.20
2022-11-22T02:58:08.657Z,18.75
2022-11-22T03:00:39.755Z,22.13
2022-11-22T03:03:08.882Z,21.63
2022-11-22T03:05:37.736Z,19.45
2022-11-22T03:08:06.633Z,14.98
2022-11-22T03:10:35.507Z,18.60
2022-11-22T03:13:04.325Z,18.73
2022-11-22T03:15:34.485Z,18.48
2022-11-22T03:18:05.431Z,19.95
2022-11-22T03:20:35.507Z,32.72
2022-11-22T03:23:04.359Z,25.70
2022-11-22T03:25:33.287Z,20.20
2022-11-22T03:28:02.110Z,22.58
2022-11-22T03:30:30.909Z,19.85
2022-11-22T03:33:01.234Z,20.33
2022-11-22T03:35:30.065Z,15.45
2022-11-22T03:37:58.902Z,17.65
2022-11-22T03:40:27.722Z,21.17
2022-11-22T03:42:56.482Z,24.08
2022-11-22T03:45:25.244Z,18.10
2022-11-22T03:47:54.098Z,22.63
2022-11-22T03:50:24.322Z,21.30
2022-11-22T03:52:53.275Z,17.58
2022-11-22T03:55:22.146Z,19.88
2022-11-22T03:57:50.849Z,19.23
2022-11-22T04:00:20.418Z,25.10
2022-11-22T04:02:49.296Z,22.52
2022-11-22T04:05:18.240Z,21.05
2022-11-22T04:07:48.952Z,19.35
2022-11-22T04:10:22.293Z,23.70
2022-11-22T04:12:51.399Z,20.63
2022-11-22T04:15:19.316Z,18.58
2022-11-22T04:17:48.184Z,24.40
2022-11-22T04:20:37.546Z,23.20
2022-11-22T04:23:10.761Z,14.03
2022-11-22T04:25:42.497Z,23.17
2022-11-22T04:28:12.720Z,22.92
2022-11-22T04:30:59.188Z,22.02
2022-11-22T04:33:27.960Z,23.17
2022-11-22T04:35:57.061Z,20.25
2022-11-22T04:38:28.211Z,19.30
2022-11-22T04:40:56.973Z,25.27
2022-11-22T04:43:46.080Z,18.45
2022-11-22T04:46:16.616Z,25.77
2022-11-22T04:48:45.456Z,23.58
2022-11-22T04:51:33.740Z,15.07
2022-11-22T04:54:03.859Z,23.40
2022-11-22T04:56:32.645Z,23.60
2022-11-22T04:59:01.358Z,30.10
2022-11-22T05:01:30.303Z,24.23
2022-11-22T05:03:59.145Z,24.63
2022-11-22T05:06:27.913Z,24.95
2022-11-22T05:08:57.238Z,23.27
2022-11-22T05:11:27.411Z,24.15
2022-11-22T05:13:56.132Z,27.77
2022-11-22T05:16:24.882Z,27.58
2022-11-22T05:19:00.194Z,29.30
2022-11-22T05:21:31.108Z,21.98
2022-11-22T05:23:58.910Z,34.80
2022-11-22T05:26:31.628Z,31.42
2022-11-22T05:29:05.849Z,28.70
2022-11-22T05:31:36.467Z,26.08
2022-11-22T05:34:05.759Z,23.73
2022-11-22T05:36:35.926Z,27.17
2022-11-22T05:39:05.247Z,22.48
2022-11-22T05:41:35.408Z,23.33
2022-11-22T05:44:04.530Z,21.52
2022-11-22T05:46:33.319Z,32.65
2022-11-22T05:49:02.373Z,24.63
2022-11-22T05:51:34.699Z,31.35
2022-11-22T05:54:04.612Z,30.00
2022-11-22T05:56:35.032Z,23.58
2022-11-22T05:59:03.922Z,43.85
2022-11-22T06:01:33.027Z,25.15
2022-11-22T06:04:02.945Z,32.85
2022-11-22T06:06:31.957Z,29.13
2022-11-22T06:09:01.427Z,21.83
2022-11-22T06:11:30.458Z,25.42
2022-11-22T06:14:03.336Z,33.70
2022-11-22T06:16:32.624Z,31.40
2022-11-22T06:19:01.668Z,27.10
2022-11-22T06:21:30.608Z,25.00
2022-11-22T06:23:59.719Z,22.73
2022-11-22T06:26:32.414Z,30.73
2022-11-22T06:29:05.890Z,34.03
2022-11-22T06:31:34.908Z,29.88
2022-11-22T06:34:03.883Z,30.40
2022-11-22T06:41:02.255Z,29.27
2022-11-22T06:43:34.837Z,24.60
2022-11-22T06:46:07.723Z,41.47
2022-11-22T06:48:39.326Z,29.75
2022-11-22T06:51:14.953Z,39.20
2022-11-22T06:53:48.550Z,30.25
2022-11-22T06:56:21.307Z,34.30
2022-11-22T06:58:51.815Z,33.53
2022-11-22T07:01:24.126Z,26.58
2022-11-22T07:03:56.182Z,28.30
2022-11-22T07:06:50.413Z,32.17
2022-11-22T07:09:19.568Z,34.22
2022-11-22T07:11:48.604Z,27.88
2022-11-22T07:14:17.687Z,26.90
2022-11-22T07:16:48.077Z,29.73
2022-11-22T07:19:17.286Z,27.92
2022-11-22T07:21:59.752Z,30.13
2022-11-22T07:24:30.351Z,33.63
2022-11-22T07:26:59.396Z,28.02
2022-11-22T07:29:28.703Z,23.10
2022-11-22T07:31:59.448Z,28.02
2022-11-22T07:34:28.493Z,26.73
2022-11-22T07:37:01.453Z,26.15
2022-11-22T07:39:32.729Z,18.52
2022-11-22T07:42:01.846Z,28.45
2022-11-22T07:44:30.946Z,24.52
2022-11-22T07:47:01.488Z,19.23
2022-11-22T07:49:30.822Z,28.67
2022-11-22T07:52:00.177Z,20.48
2022-11-22T07:54:29.239Z,30.15
2022-11-22T07:56:58.231Z,31.08
2022-11-22T07:59:27.698Z,23.33
2022-11-22T08:01:56.947Z,24.92
2022-11-22T08:04:27.402Z,25.75
2022-11-22T08:07:22.575Z,35.95
2022-11-22T08:09:51.684Z,32.88
2022-11-22T08:12:20.708Z,28.98
2022-11-22T08:14:49.712Z,22.92
2022-11-22T08:17:18.928Z,27.27
2022-11-22T08:19:53.495Z,36.83
2022-11-22T08:22:22.608Z,36.25
2022-11-22T08:24:53.751Z,32.67
2022-11-22T08:27:22.883Z,37.08
2022-11-22T08:29:51.911Z,40.88
2022-11-22T08:32:20.983Z,33.97
2022-11-22T08:34:51.423Z,30.35
2022-11-22T08:37:20.487Z,28.10
2022-11-22T08:41:03.937Z,21.88
2022-11-22T08:43:33.309Z,35.78
2022-11-22T08:46:02.991Z,29.92
2022-11-22T08:48:33.956Z,23.55
2022-11-22T08:51:06.800Z,37.17
2022-11-22T08:53:37.506Z,25.55
2022-11-22T08:56:09.752Z,31.90
2022-11-22T08:58:39.592Z,29.95
2022-11-22T09:01:10.293Z,28.20
2022-11-22T09:03:40.286Z,35.45
2022-11-22T09:09:51.845Z,32.95
2022-11-22T09:12:20.869Z,32.35
2022-11-22T09:14:49.987Z,29.80
2022-11-22T09:17:19.084Z,38.55
2022-11-22T09:19:48.143Z,33.13
2022-11-22T09:22:17.138Z,34.70
2022-11-22T09:24:46.164Z,33.95
2022-11-22T09:27:16.594Z,40.80
2022-11-22T09:29:45.674Z,47.85
2022-11-22T09:32:14.691Z,37.58
2022-11-22T09:34:56.076Z,34.63
2022-11-22T09:37:25.141Z,33.58
2022-11-22T09:39:54.075Z,35.13
2022-11-22T09:42:38.207Z,36.25
2022-11-22T09:45:37.237Z,31.00
2022-11-22T09:48:18.966Z,42.58
2022-11-22T09:50:57.934Z,36.55
2022-11-22T09:53:34.255Z,39.28
2022-11-22T09:56:09.682Z,29.05
2022-11-22T09:58:43.690Z,39.95
2022-11-22T10:01:18.238Z,32.58
2022-11-22T10:03:53.180Z,40.55
2022-11-22T10:06:28.487Z,39.15
2022-11-22T10:09:07.939Z,33.58
2022-11-22T10:11:44.494Z,44.60
2022-11-22T10:14:26.902Z,35.97
2022-11-22T10:17:02.550Z,27.60
2022-11-22T10:19:38.969Z,31.80
2022-11-22T10:22:13.731Z,45.30
2022-11-22T10:24:43.667Z,32.00
2022-11-22T10:27:15.229Z,40.47
2022-11-22T10:29:52.682Z,35.33
2022-11-22T10:32:58.414Z,33.85
2022-11-22T10:35:47.929Z,30.38
2022-11-22T10:38:41.256Z,28.23
2022-11-22T10:41:21.179Z,41.15
2022-11-22T10:44:07.292Z,34.47
2022-11-22T10:46:49.278Z,28.23
2022-11-22T10:49:29.937Z,35.17
2022-11-22T10:52:05.975Z,29.73
2022-11-22T10:54:43.521Z,36.72
2022-11-22T10:57:31.253Z,39.95
2022-11-22T11:00:16.460Z,35.33
2022-11-22T11:03:16.794Z,32.13
2022-11-22T11:11:33.324Z,45.03
2022-11-22T11:14:08.770Z,35.05
2022-11-22T11:16:39.158Z,28.30
2022-11-22T11:19:18.770Z,28.45
2022-11-22T11:21:53.672Z,56.95
2022-11-22T11:25:12.920Z,36.47
2022-11-22T11:27:43.990Z,30.48
2022-11-22T11:30:14.167Z,29.60
2022-11-22T11:32:54.482Z,41.28
2022-11-22T11:35:28.631Z,33.95
2022-11-22T11:37:58.403Z,37.42
2022-11-22T11:40:29.691Z,34.85
2022-11-22T11:43:20.661Z,40.10
2022-11-22T11:45:50.239Z,31.13
2022-11-22T11:48:30.521Z,43.22
2022-11-22T11:51:14.654Z,34.03
2022-11-22T11:53:52.139Z,35.42
2022-11-22T11:56:33.622Z,37.33
2022-11-22T11:59:09.069Z,43.38
2022-11-22T12:01:39.240Z,37.33
2022-11-22T12:04:17.788Z,39.30
2022-11-22T12:07:02.795Z,27.20
2022-11-22T12:09:38.115Z,41.22
2022-11-22T12:12:20.856Z,39.70
2022-11-22T12:15:10.861Z,41.72
2022-11-22T12:17:51.393Z,34.03
2022-11-22T12:20:26.516Z,37.72
2022-11-22T12:23:07.162Z,42.88
2022-11-22T12:25:40.136Z,41.05
2022-11-22T12:28:19.234Z,33.17
2022-11-22T12:30:53.939Z,38.58
2022-11-22T12:33:28.858Z,31.20
2022-11-22T12:35:59.146Z,35.80
2022-11-22T12:38:34.186Z,37.33
2022-11-22T12:41:07.210Z,50.38
2022-11-22T12:43:43.014Z,33.83
2022-11-22T12:46:17.412Z,28.67
2022-11-22T12:48:50.607Z,40.90
2022-11-22T12:51:27.443Z,41.85
2022-11-22T12:54:03.498Z,32.03
2022-11-22T12:56:39.422Z,45.08
2022-11-22T12:59:17.205Z,30.05
2022-11-22T13:01:53.667Z,31.45
2022-11-22T13:04:32.105Z,38.85
2022-11-22T13:07:13.419Z,37.00
2022-11-22T13:09:51.169Z,39.45
2022-11-22T13:12:31.103Z,40.25
2022-11-22T13:15:04.925Z,38.97
2022-11-22T13:17:39.406Z,36.00
2022-11-22T13:20:17.947Z,38.30
2022-11-22T13:22:59.247Z,30.73
2022-11-22T13:25:49.654Z,32.85
2022-11-22T13:28:24.393Z,39.92
2022-11-22T13:31:14.363Z,40.85
2022-11-22T13:33:55.269Z,28.20
2022-11-22T13:36:42.066Z,38.97
2022-11-22T13:39:21.230Z,30.83
2022-11-22T13:42:02.065Z,32.33
2022-11-22T13:44:51.166Z,38.20
2022-11-22T13:47:41.959Z,39.50
2022-11-22T13:51:00.507Z,43.15
2022-11-22T13:53:32.943Z,29.48
2022-11-22T13:57:01.208Z,28.33
2022-11-22T13:59:31.305Z,37.15
2022-11-22T14:02:23.306Z,44.83
2022-11-22T14:04:56.842Z,27.30
2022-11-22T14:07:40.220Z,36.72
2022-11-22T14:10:30.194Z,33.00
2022-11-22T14:13:21.865Z,30.25
2022-11-22T14:16:02.910Z,33.47
2022-11-22T14:18:56.624Z,34.17
2022-11-22T14:22:12.183Z,34.38
2022-11-22T14:25:03.708Z,37.20
2022-11-22T14:27:45.207Z,28.20
2022-11-22T14:30:22.204Z,39.65
2022-11-22T14:33:02.827Z,31.00
2022-11-22T14:35:38.730Z,39.22
2022-11-22T14:38:30.682Z,34.00
2022-11-22T14:41:32.382Z,35.05
2022-11-22T14:44:06.361Z,32.03
2022-11-22T14:46:53.301Z,37.25
2022-11-22T14:49:38.982Z,44.47
2022-11-22T14:52:21.746Z,38.22
2022-11-22T14:54:56.541Z,29.98
2022-11-22T14:57:30.076Z,26.67
2022-11-22T15:00:19.431Z,37.15
2022-11-22T15:03:37.447Z,34.85
2022-11-22T15:09:20.996Z,36.38
2022-11-22T15:09:53.331Z,26.50
2022-11-22T15:13:07.017Z,37.33
2022-11-22T15:57:35.319Z,30.42
2022-11-22T16:00:31.698Z,41.15
2022-11-22T16:03:04.619Z,37.25
2022-11-22T16:06:10.537Z,30.80
2022-11-22T16:08:31.048Z,36.08
2022-11-22T16:11:07.220Z,43.25
2022-11-22T16:13:38.065Z,34.72
2022-11-22T16:16:22.305Z,33.72
2022-11-22T16:18:53.454Z,44.20
2022-11-22T16:21:29.155Z,36.15
2022-11-22T16:24:19.188Z,35.10
2022-11-22T16:27:01.034Z,33.60
2022-11-22T16:29:33.461Z,37.20
2022-11-22T16:32:06.859Z,49.13
2022-11-22T16:34:36.806Z,44.50
2022-11-22T16:37:29.008Z,41.42
2022-11-22T16:40:01.407Z,43.42
2022-11-22T16:42:33.690Z,44.80
2022-11-22T16:45:04.432Z,39.05
2022-11-22T16:47:35.798Z,31.23
2022-11-22T16:50:06.017Z,46.63
2022-11-22T16:52:38.166Z,41.63
2022-11-22T16:55:08.479Z,35.08
2022-11-22T16:57:39.533Z,40.92
2022-11-22T17:00:10.750Z,28.30
2022-11-22T17:02:41.451Z,47.05
2022-11-22T17:05:18.338Z,42.63
2022-11-22T17:07:48.539Z,36.50
2022-11-22T17:10:17.976Z,32.80
2022-11-22T17:12:49.596Z,42.47
2022-11-22T17:15:23.744Z,39.85
2022-11-22T17:17:53.272Z,46.10
2022-11-22T17:20:23.372Z,44.40
2022-11-22T17:22:55.400Z,45.88
2022-11-22T17:25:26.338Z,41.30
2022-11-22T17:27:59.125Z,54.35
2022-11-22T17:30:28.930Z,39.88
2022-11-22T17:32:58.361Z,34.65
2022-11-22T17:35:33.224Z,32.03
2022-11-22T17:38:05.677Z,46.47
2022-11-22T17:40:36.685Z,40.05
2022-11-22T17:43:08.051Z,48.00
2022-11-22T17:45:44.105Z,46.83
2022-11-22T17:48:14.333Z,30.85
2022-11-22T17:50:43.988Z,41.55
2022-11-22T17:53:13.280Z,35.03
2022-11-22T17:58:42.225Z,38.13
2022-11-22T18:01:14.055Z,34.42
2022-11-22T18:03:44.850Z,40.80
2022-11-22T18:06:15.424Z,44.15
2022-11-22T18:08:47.448Z,35.45
2022-11-22T18:11:19.072Z,54.47
2022-11-22T18:13:50.490Z,42.17
2022-11-22T18:16:20.455Z,38.45
2022-11-22T18:18:58.120Z,41.58
2022-11-22T18:21:30.839Z,36.13
2022-11-22T18:24:01.471Z,42.25
2022-11-22T18:26:40.421Z,38.97
2022-11-22T18:32:04.568Z,33.63
2022-11-22T18:34:36.148Z,38.35
2022-11-22T18:37:06.130Z,35.65
2022-11-22T18:39:38.546Z,38.92
2022-11-22T18:42:13.782Z,41.42
2022-11-22T18:44:45.303Z,49.33
2022-11-22T18:47:15.246Z,39.80
2022-11-22T18:49:46.543Z,45.08
2022-11-22T18:52:17.955Z,39.85
2022-11-22T18:54:50.087Z,42.67
2022-11-22T18:57:20.375Z,35.25
2022-11-22T18:59:51.957Z,35.17
2022-11-22T19:02:26.202Z,37.22
2022-11-22T19:04:56.405Z,45.55
2022-11-22T19:07:26.327Z,49.50
2022-11-22T19:09:56.373Z,40.92
2022-11-22T19:12:29.652Z,40.22
2022-11-22T19:15:01.365Z,48.08
2022-11-22T19:17:34.845Z,37.78
2022-11-22T19:20:05.831Z,43.60
2022-11-22T19:22:36.051Z,40.40
2022-11-22T19:25:07.015Z,43.55
2022-11-22T19:27:37.463Z,39.75
2022-11-22T19:30:10.785Z,37.47
2022-11-22T19:32:40.764Z,40.13
2022-11-22T19:35:11.806Z,35.45
2022-11-22T19:37:42.109Z,43.47
2022-11-22T19:40:12.275Z,48.70
2022-11-22T19:42:41.324Z,36.38
2022-11-22T19:45:12.352Z,44.08
2022-11-22T19:47:41.377Z,35.08
2022-11-22T19:50:10.483Z,37.53
2022-11-22T19:52:39.543Z,45.03
2022-11-22T19:55:09.185Z,40.38
2022-11-22T19:57:38.264Z,35.10
2022-11-22T20:00:09.970Z,41.65
2022-11-22T20:02:40.448Z,45.42
2022-11-22T20:05:10.570Z,32.58
2022-11-22T20:07:39.679Z,38.70
2022-11-22T20:10:09.328Z,39.13
2022-11-22T20:12:39.676Z,35.55
2022-11-22T20:15:09.476Z,37.55
2022-11-22T20:17:40.152Z,42.58
2022-11-22T20:20:10.467Z,38.95
2022-11-22T20:22:39.577Z,40.72
2022-11-22T20:25:09.531Z,55.65
2022-11-22T20:27:38.569Z,40.25
2022-11-22T20:30:08.599Z,39.20
2022-11-22T20:32:40.968Z,42.35
2022-11-22T20:35:11.679Z,42.80
2022-11-22T20:37:40.841Z,43.20
2022-11-22T20:40:10.578Z,32.65
2022-11-22T20:42:40.288Z,43.17
2022-11-22T20:45:10.570Z,41.80
2022-11-22T20:47:39.864Z,43.08
2022-11-22T20:50:11.402Z,46.58
2022-11-22T20:52:40.395Z,40.63
2022-11-22T20:55:10.571Z,43.00
2022-11-22T20:57:41.007Z,45.97
2022-11-22T21:00:11.577Z,40.25
2022-11-22T21:02:40.586Z,45.75
2022-11-22T21:05:12.239Z,42.35
2022-11-22T21:07:41.277Z,34.10
2022-11-22T21:10:10.798Z,38.95
2022-11-22T21:12:39.809Z,44.33
2022-11-22T21:15:09.678Z,40.10
2022-11-22T21:17:50.571Z,37.20
2022-11-22T21:20:30.570Z,42.38
2022-11-22T21:22:59.778Z,53.88
2022-11-22T21:25:28.877Z,37.15
2022-11-22T21:27:58.126Z,47.03
2022-11-22T21:30:27.143Z,42.05
2022-11-22T21:32:56.233Z,38.45
2022-11-22T21:35:25.351Z,45.75
2022-11-22T21:38:43.806Z,36.88
2022-11-22T21:44:08.350Z,40.60
2022-11-22T21:46:37.785Z,46.83
2022-11-22T21:49:06.900Z,38.63
2022-11-22T21:51:36.682Z,38.85
2022-11-22T21:54:08.777Z,50.22
2022-11-22T21:56:39.243Z,44.13
2022-11-22T21:59:09.464Z,49.70
2022-11-22T22:01:40.240Z,31.85
2022-11-22T22:04:09.419Z,40.60
2022-11-22T22:06:42.324Z,45.72
2022-11-22T22:09:15.406Z,39.22
2022-11-22T22:11:47.692Z,42.30
2022-11-22T22:14:17.136Z,33.22
2022-11-22T22:16:46.256Z,51.20
2022-11-22T22:19:16.368Z,47.90
2022-11-22T22:21:45.791Z,42.67
2022-11-22T22:24:16.509Z,43.90
2022-11-22T22:26:45.580Z,36.85
2022-11-22T22:29:14.548Z,48.53
2022-11-22T22:31:43.696Z,46.80
2022-11-22T22:34:15.715Z,42.83
2022-11-22T22:36:44.752Z,39.50
2022-11-22T22:39:15.213Z,42.97
2022-11-22T22:41:44.172Z,43.03
2022-11-22T22:44:13.368Z,37.90
2022-11-22T22:46:42.581Z,43.22
2022-11-22T22:49:11.725Z,36.42
2022-11-22T22:51:40.785Z,43.78
2022-11-22T22:55:02.899Z,44.75
2022-11-22T22:57:33.299Z,40.45
2022-11-22T23:00:02.650Z,42.22
2022-11-22T23:02:31.841Z,39.63
2022-11-22T23:05:00.886Z,44.55
2022-11-22T23:07:29.916Z,35.75
2022-11-22T23:09:58.918Z,51.33
2022-11-22T23:12:27.983Z,41.40
2022-11-22T23:14:58.417Z,45.13
2022-11-22T23:17:27.488Z,48.67
2022-11-22T23:19:56.544Z,60.97
2022-11-22T23:22:26.152Z,37.88
2022-11-22T23:24:55.314Z,46.63
2022-11-22T23:27:24.417Z,41.63
2022-11-22T23:29:53.351Z,51.10
2022-11-22T23:32:23.943Z,46.97
2022-11-22T23:34:53.100Z,46.58
2022-11-22T23:37:22.070Z,50.15
2022-11-22T23:39:51.457Z,47.50
2022-11-22T23:42:20.401Z,60.10
2022-11-22T23:44:49.772Z,38.35
2022-11-22T23:47:18.981Z,50.50
2022-11-22T23:49:49.521Z,46.35
2022-11-22T23:52:18.940Z,45.90
2022-11-22T23:54:47.898Z,51.42
2022-11-22T23:57:16.888Z,44.97
2022-11-22T23:59:45.855Z,64.40
